Time;durP1;ratioP1;P1;durP2;ratioP2;P2;SDS_P1;SDS_P2;PMS_P1;PMS_P2;Temp;Humidity;BMP_temperature;BMP_pressure;BME280_temperature;BME280_humidity;BME280_pressure;Samples;Min_cycle;Max_cycle;Signal;HPM_P1;HPM_P2
2022/05/09 00:01:02;;;;;;;11.00;9.27;;;14.80;99.90;;;;;;5041363;28;20800;-88
2022/05/09 00:03:29;;;;;;;11.60;9.43;;;14.70;99.90;;;;;;5040318;28;20420;-88
2022/05/09 00:05:57;;;;;;;10.30;9.20;;;14.70;99.90;;;;;;5044738;28;20458;-87
2022/05/09 00:08:31;;;;;;;12.03;10.10;;;14.70;99.90;;;;;;5044283;28;20488;-88
2022/05/09 00:11:01;;;;;;;11.03;9.83;;;14.70;99.90;;;;;;5044221;28;20440;-87
2022/05/09 00:13:32;;;;;;;10.53;9.43;;;14.60;99.90;;;;;;5046013;28;21033;-88
2022/05/09 00:15:58;;;;;;;11.40;10.17;;;14.50;99.90;;;;;;5051422;28;20545;-87
2022/05/09 00:18:25;;;;;;;10.80;8.77;;;14.40;99.90;;;;;;5042755;28;20843;-86
2022/05/09 00:20:52;;;;;;;14.50;9.13;;;14.40;99.90;;;;;;5040537;28;20439;-87
2022/05/09 00:23:20;;;;;;;10.60;9.50;;;14.30;99.90;;;;;;5041254;28;20441;-87
2022/05/09 00:25:47;;;;;;;11.23;9.43;;;14.30;99.90;;;;;;5039826;28;20499;-88
2022/05/09 00:28:14;;;;;;;10.43;9.33;;;14.40;99.90;;;;;;5041508;28;20452;-87
2022/05/09 00:30:42;;;;;;;12.27;9.80;;;14.40;99.90;;;;;;5057349;28;20462;-86
2022/05/09 00:33:09;;;;;;;11.10;9.90;;;14.30;99.90;;;;;;5058764;28;20513;-87
2022/05/09 00:35:37;;;;;;;11.03;9.40;;;14.30;99.90;;;;;;5046677;28;20431;-87
2022/05/09 00:38:05;;;;;;;11.70;9.60;;;14.30;99.90;;;;;;5042051;28;20473;-86
2022/05/09 00:40:33;;;;;;;10.80;9.03;;;14.20;99.90;;;;;;5037200;28;20484;-87
2022/05/09 00:43:00;;;;;;;11.17;9.83;;;14.20;99.90;;;;;;5038428;28;20436;-87
2022/05/09 00:45:28;;;;;;;10.87;9.07;;;14.10;99.90;;;;;;5052217;28;20452;-88
2022/05/09 00:47:55;;;;;;;13.17;10.37;;;14.10;99.90;;;;;;5058127;28;20438;-88
2022/05/09 00:50:25;;;;;;;10.80;9.63;;;14.20;99.90;;;;;;5045706;28;20507;-87
2022/05/09 00:52:56;;;;;;;10.63;8.77;;;14.00;99.90;;;;;;5058129;28;20397;-87
2022/05/09 00:55:28;;;;;;;11.67;9.73;;;14.00;99.90;;;;;;5047929;28;20400;-87
2022/05/09 00:58:05;;;;;;;11.47;9.77;;;14.00;99.90;;;;;;5048793;28;20507;-88
2022/05/09 01:00:34;;;;;;;11.13;9.87;;;13.90;99.90;;;;;;5043730;28;20642;-87
2022/05/09 01:03:02;;;;;;;10.73;8.90;;;13.80;99.90;;;;;;5043199;28;20425;-87
2022/05/09 01:05:30;;;;;;;10.77;9.73;;;13.80;99.90;;;;;;5046002;28;20432;-86
2022/05/09 01:07:58;;;;;;;11.40;10.30;;;13.80;99.90;;;;;;5049429;28;20532;-87
2022/05/09 01:10:28;;;;;;;11.73;9.20;;;13.80;99.90;;;;;;5045663;28;20536;-88
2022/05/09 01:12:59;;;;;;;11.63;10.40;;;13.80;99.90;;;;;;5052489;28;20421;-88
2022/05/09 01:15:26;;;;;;;13.30;10.00;;;13.80;99.90;;;;;;5052037;28;20444;-89
2022/05/09 01:17:53;;;;;;;11.70;8.73;;;13.70;99.90;;;;;;5038894;28;20432;-88
2022/05/09 01:20:20;;;;;;;11.90;9.63;;;13.70;99.90;;;;;;5041204;28;20467;-87
2022/05/09 01:22:48;;;;;;;11.33;9.43;;;13.60;99.90;;;;;;5048677;28;20515;-88
2022/05/09 01:25:18;;;;;;;11.47;9.13;;;13.60;99.90;;;;;;5043646;28;20473;-88
2022/05/09 01:27:48;;;;;;;10.87;9.67;;;13.60;99.90;;;;;;5042235;28;20486;-88
2022/05/09 01:30:20;;;;;;;11.83;10.27;;;13.60;99.90;;;;;;5041060;28;20568;-87
2022/05/09 01:32:50;;;;;;;12.10;9.80;;;13.60;99.90;;;;;;5041141;28;20467;-88
2022/05/09 01:35:23;;;;;;;11.60;9.93;;;13.60;99.90;;;;;;5041615;28;20499;-87
2022/05/09 01:37:54;;;;;;;11.53;8.87;;;13.60;99.90;;;;;;5040259;28;20524;-87
2022/05/09 01:40:21;;;;;;;13.13;9.73;;;13.60;99.90;;;;;;5039518;28;20498;-87
2022/05/09 01:42:48;;;;;;;10.37;9.27;;;13.60;99.90;;;;;;5039665;28;20509;-88
2022/05/09 01:45:15;;;;;;;12.43;10.43;;;13.60;99.90;;;;;;5038853;28;20463;-87
2022/05/09 01:50:27;;;;;;;10.80;9.53;;;13.50;99.90;;;;;;5077691;22;20944;-86
2022/05/09 01:52:55;;;;;;;9.63;8.63;;;13.50;99.90;;;;;;5099282;28;20461;-87
2022/05/09 01:55:22;;;;;;;12.50;10.30;;;13.40;99.90;;;;;;5102988;28;20897;-87
2022/05/09 01:57:50;;;;;;;11.47;9.57;;;13.50;99.90;;;;;;5099705;28;20614;-87
2022/05/09 02:00:18;;;;;;;13.83;10.80;;;13.50;99.90;;;;;;5100914;28;20490;-87
2022/05/09 02:02:45;;;;;;;11.17;9.93;;;13.40;99.90;;;;;;5102945;28;20537;-87
2022/05/09 02:05:13;;;;;;;10.63;9.53;;;13.30;99.90;;;;;;5101461;28;20432;-86
2022/05/09 02:07:40;;;;;;;10.40;9.30;;;13.30;99.90;;;;;;5102326;28;20802;-87
2022/05/09 02:10:09;;;;;;;11.33;9.30;;;13.30;99.90;;;;;;5102812;28;20480;-87
2022/05/09 02:12:36;;;;;;;11.73;10.53;;;13.20;99.90;;;;;;5104436;28;20444;-87
2022/05/09 02:15:05;;;;;;;12.50;9.87;;;13.30;99.90;;;;;;5109302;28;20454;-87
2022/05/09 02:17:31;;;;;;;12.10;9.30;;;13.20;99.90;;;;;;5109657;28;20401;-87
2022/05/09 02:19:58;;;;;;;10.30;9.20;;;13.20;99.90;;;;;;5110890;28;20503;-87
2022/05/09 02:22:26;;;;;;;13.17;10.70;;;13.20;99.90;;;;;;5116870;28;20413;-87
2022/05/09 02:24:53;;;;;;;11.47;9.50;;;13.10;99.90;;;;;;5110069;28;20504;-87
2022/05/09 02:27:22;;;;;;;11.40;10.20;;;13.20;99.90;;;;;;5108747;28;20967;-86
2022/05/09 02:29:49;;;;;;;15.80;10.33;;;13.20;99.90;;;;;;5106584;28;20455;-86
2022/05/09 02:32:16;;;;;;;13.40;9.10;;;13.20;99.90;;;;;;5110850;28;20525;-87
2022/05/09 02:34:43;;;;;;;11.53;10.30;;;13.20;99.90;;;;;;5108468;28;20520;-87
2022/05/09 02:37:10;;;;;;;11.40;10.20;;;13.30;99.90;;;;;;5106250;28;20472;-87
2022/05/09 02:39:37;;;;;;;14.37;10.40;;;13.30;99.90;;;;;;5105923;28;20482;-87
2022/05/09 02:42:05;;;;;;;12.90;10.67;;;13.30;99.90;;;;;;5105377;28;20463;-87
2022/05/09 02:44:33;;;;;;;11.93;10.03;;;13.20;99.90;;;;;;5105345;28;20478;-87
2022/05/09 02:47:00;;;;;;;11.23;10.03;;;13.10;99.90;;;;;;5106058;28;20521;-87
2022/05/09 02:49:27;;;;;;;11.23;9.90;;;13.00;99.90;;;;;;5106126;28;20947;-87
2022/05/09 02:51:54;;;;;;;14.27;11.10;;;13.10;99.90;;;;;;5105848;28;20509;-87
2022/05/09 02:54:21;;;;;;;12.07;10.77;;;13.00;99.90;;;;;;5105734;28;20508;-86
2022/05/09 02:56:48;;;;;;;12.33;9.87;;;12.90;99.90;;;;;;5109032;28;20444;-86
2022/05/09 02:59:15;;;;;;;11.90;10.13;;;12.90;99.90;;;;;;5109745;28;20450;-86
2022/05/09 03:01:43;;;;;;;11.63;9.70;;;12.90;99.90;;;;;;5116169;28;20486;-86
2022/05/09 03:06:54;;;;;;;12.43;10.60;;;12.80;99.90;;;;;;5111260;28;20418;-86
2022/05/09 03:09:21;;;;;;;11.97;10.57;;;12.90;99.90;;;;;;5109079;28;20459;-86
2022/05/09 03:11:48;;;;;;;12.00;9.93;;;12.90;99.90;;;;;;5106544;28;20489;-86
2022/05/09 03:14:15;;;;;;;12.90;11.53;;;12.90;99.90;;;;;;5105633;28;20443;-86
2022/05/09 03:16:43;;;;;;;12.47;10.50;;;12.80;99.90;;;;;;5105796;28;20458;-86
2022/05/09 03:19:10;;;;;;;12.93;10.80;;;12.70;99.90;;;;;;5101613;28;20446;-86
2022/05/09 03:21:38;;;;;;;11.03;9.83;;;12.60;99.90;;;;;;5113224;28;20493;-87
2022/05/09 03:24:05;;;;;;;11.67;10.10;;;12.50;99.90;;;;;;5114080;28;20546;-86
2022/05/09 03:26:32;;;;;;;12.10;10.43;;;12.50;99.90;;;;;;5105243;28;20454;-87
2022/05/09 03:28:59;;;;;;;12.40;10.13;;;12.50;99.90;;;;;;5104982;28;20447;-87
2022/05/09 03:31:26;;;;;;;16.73;11.00;;;12.40;99.90;;;;;;5114967;28;20469;-87
2022/05/09 03:33:54;;;;;;;12.17;10.40;;;12.60;99.90;;;;;;5110710;28;20525;-86
2022/05/09 03:36:21;;;;;;;14.00;11.00;;;12.70;99.90;;;;;;5107441;28;20453;-85
2022/05/09 03:38:48;;;;;;;12.50;9.10;;;12.80;99.90;;;;;;5105881;28;20895;-86
2022/05/09 03:41:15;;;;;;;12.10;10.80;;;12.70;99.90;;;;;;5104455;28;20483;-86
2022/05/09 03:43:42;;;;;;;12.80;10.53;;;12.60;99.90;;;;;;5104937;28;20538;-86
2022/05/09 03:46:09;;;;;;;13.87;10.17;;;12.60;99.90;;;;;;5105509;28;20490;-86
2022/05/09 03:48:36;;;;;;;13.60;9.80;;;12.60;99.90;;;;;;5109140;28;20445;-86
2022/05/09 03:51:04;;;;;;;11.97;9.53;;;12.70;99.90;;;;;;5111878;28;20536;-86
2022/05/09 03:53:31;;;;;;;12.20;10.33;;;12.60;99.90;;;;;;5107934;28;20445;-86
2022/05/09 03:55:58;;;;;;;11.57;10.43;;;12.60;99.90;;;;;;5105923;28;20454;-86
2022/05/09 03:58:26;;;;;;;12.20;10.07;;;12.50;99.90;;;;;;5106483;28;20475;-86
2022/05/09 04:00:53;;;;;;;15.43;11.30;;;12.40;99.90;;;;;;5105665;28;20543;-86
2022/05/09 04:03:20;;;;;;;13.47;11.27;;;12.40;99.90;;;;;;5105025;28;20457;-86
2022/05/09 04:05:48;;;;;;;13.20;11.40;;;12.60;99.90;;;;;;5105570;28;20515;-87
2022/05/09 04:08:18;;;;;;;13.37;10.47;;;12.60;99.90;;;;;;5104719;28;20461;-86
2022/05/09 04:10:46;;;;;;;10.87;9.77;;;12.60;99.90;;;;;;5106662;28;20874;-86
2022/05/09 04:13:13;;;;;;;11.90;10.33;;;12.60;99.90;;;;;;5107152;28;20478;-86
2022/05/09 04:18:29;;;;;;;12.23;10.80;;;12.50;99.90;;;;;;5105891;28;20389;-87
2022/05/09 04:20:56;;;;;;;13.30;11.67;;;12.50;99.90;;;;;;5113465;28;20449;-88
2022/05/09 04:23:24;;;;;;;11.63;10.33;;;12.60;99.90;;;;;;5114549;28;20422;-86
2022/05/09 04:25:51;;;;;;;14.33;10.83;;;12.50;99.90;;;;;;5106589;28;20486;-86
2022/05/09 04:28:20;;;;;;;12.03;10.77;;;12.50;99.90;;;;;;5109331;28;20513;-86
2022/05/09 04:30:47;;;;;;;12.37;10.80;;;12.40;99.90;;;;;;5115235;28;20470;-86
2022/05/09 04:33:14;;;;;;;12.43;11.13;;;12.40;99.90;;;;;;5106762;28;20449;-86
2022/05/09 04:35:42;;;;;;;12.90;10.83;;;12.60;99.90;;;;;;5106750;28;20457;-87
2022/05/09 04:38:14;;;;;;;12.53;11.23;;;12.60;99.90;;;;;;5110613;28;20455;-87
2022/05/09 04:40:42;;;;;;;12.17;10.33;;;12.60;99.90;;;;;;5103403;28;20503;-85
2022/05/09 04:43:09;;;;;;;12.67;11.07;;;12.60;99.90;;;;;;5106848;28;20463;-85
2022/05/09 04:45:36;;;;;;;13.10;10.83;;;12.60;99.90;;;;;;5113671;28;20443;-87
2022/05/09 04:48:04;;;;;;;13.20;11.73;;;12.60;99.90;;;;;;5111109;28;20435;-86
2022/05/09 04:50:32;;;;;;;14.87;11.20;;;12.70;99.90;;;;;;5110668;28;20479;-86
2022/05/09 04:52:59;;;;;;;16.17;11.27;;;12.80;99.90;;;;;;5107863;28;20447;-86
2022/05/09 04:55:26;;;;;;;13.87;11.70;;;12.90;99.90;;;;;;5110616;28;20410;-87
2022/05/09 04:57:55;;;;;;;16.80;13.10;;;12.90;99.90;;;;;;5105210;28;20452;-87
2022/05/09 05:00:24;;;;;;;14.03;11.07;;;12.90;99.90;;;;;;5104950;28;20493;-87
2022/05/09 05:02:52;;;;;;;12.33;10.63;;;13.00;99.90;;;;;;5106346;28;20451;-87
2022/05/09 05:12:32;;;;;;;;;;;;;;;;;;;;;
2022/05/09 05:19:02;;;;;;;16.73;12.87;;;13.00;99.90;;;;;;5075262;28;20934;-86
2022/05/09 05:25:25;;;;;;;14.40;12.17;;;13.10;99.90;;;;;;5020915;28;20504;-87
2022/05/09 05:28:06;;;;;;;14.10;11.97;;;13.20;99.90;;;;;;5022959;28;20489;-87
2022/05/09 05:33:55;;;;;;;16.00;13.53;;;13.40;99.90;;;;;;5017778;28;20406;-87
2022/05/09 05:36:40;;;;;;;15.93;12.00;;;13.40;99.90;;;;;;5101467;28;20455;-87
2022/05/09 05:39:46;;;;;;;;;;;;;;;;;;;;;
2022/05/09 05:42:52;;;;;;;14.83;13.07;;;13.60;99.90;;;;;;5184420;22;20561;-87
2022/05/09 05:45:46;;;;;;;14.73;13.13;;;13.60;99.90;;;;;;5082860;28;20458;-87
2022/05/09 05:48:28;;;;;;;16.03;14.33;;;13.80;99.90;;;;;;5082513;28;20842;-86
2022/05/09 05:55:02;;;;;;;18.77;15.10;;;14.00;99.90;;;;;;5021784;28;20395;-87
2022/05/09 05:57:57;;;;;;;17.10;13.73;;;14.10;99.90;;;;;;5058189;28;20422;-87
2022/05/09 06:00:36;;;;;;;16.60;13.30;;;14.20;99.90;;;;;;5090078;28;20438;-87
2022/05/09 06:03:20;;;;;;;17.73;15.07;;;14.40;99.90;;;;;;5090593;28;20410;-87
2022/05/09 06:06:42;;;;;;;16.80;13.93;;;14.50;99.90;;;;;;5087269;28;20948;-86
2022/05/09 06:09:13;;;;;;;17.27;15.47;;;14.70;99.90;;;;;;5034293;28;20418;-86
2022/05/09 06:11:45;;;;;;;18.30;14.20;;;14.80;99.90;;;;;;5081845;28;20497;-87
2022/05/09 06:14:25;;;;;;;17.53;15.73;;;14.80;99.90;;;;;;5077738;28;20471;-88
2022/05/09 06:24:14;;;;;;;15.13;13.63;;;15.00;99.90;;;;;;5069594;28;20513;-88
2022/05/09 06:32:32;;;;;;;15.27;13.63;;;15.20;99.90;;;;;;5216120;22;20477;-88
2022/05/09 06:35:01;;;;;;;15.93;13.87;;;15.30;99.90;;;;;;5090290;28;20930;-88
2022/05/09 06:38:10;;;;;;;15.80;14.17;;;15.20;99.90;;;;;;5090194;28;20417;-88
2022/05/09 06:41:27;;;;;;;21.73;14.87;;;15.20;99.90;;;;;;5081474;28;20463;-86
2022/05/09 06:43:59;;;;;;;16.10;13.77;;;15.30;99.90;;;;;;5080340;28;20926;-88
2022/05/09 06:47:06;;;;;;;15.20;12.83;;;15.30;99.90;;;;;;5090859;28;20402;-87
2022/05/09 06:49:40;;;;;;;17.93;13.47;;;15.40;99.90;;;;;;5058349;28;20467;-87
2022/05/09 06:52:56;;;;;;;15.90;14.20;;;15.50;99.90;;;;;;5082306;28;21005;-88
2022/05/09 07:04:15;;;;;;;17.60;13.10;;;16.20;99.90;;;;;;5020362;28;20464;-88
2022/05/09 07:06:44;;;;;;;14.83;13.10;;;16.20;99.90;;;;;;5019913;28;20779;-86
2022/05/09 07:09:12;;;;;;;15.37;13.70;;;16.30;99.90;;;;;;5021130;28;20454;-87
2022/05/09 07:11:42;;;;;;;15.33;12.37;;;16.30;99.90;;;;;;5035467;28;20461;-88
2022/05/09 07:14:14;;;;;;;13.83;12.13;;;16.50;99.90;;;;;;5040817;28;20472;-88
2022/05/09 07:16:50;;;;;;;14.53;12.83;;;16.60;99.90;;;;;;5046768;28;20428;-89
2022/05/09 07:19:19;;;;;;;13.53;12.13;;;16.60;99.90;;;;;;5043727;28;20495;-88
2022/05/09 07:21:46;;;;;;;14.30;12.60;;;16.60;99.90;;;;;;5042702;28;21003;-86
2022/05/09 07:28:03;;;;;;;14.20;12.20;;;16.80;99.90;;;;;;5041818;28;20424;-89
2022/05/09 07:30:32;;;;;;;15.43;12.37;;;16.80;99.90;;;;;;5057771;28;20468;-87
2022/05/09 07:33:19;;;;;;;13.20;11.50;;;17.00;99.90;;;;;;5057830;28;20430;-89
2022/05/09 07:36:02;;;;;;;13.20;11.30;;;17.10;99.90;;;;;;5048814;28;20408;-87
2022/05/09 07:38:44;;;;;;;12.87;10.40;;;17.20;99.90;;;;;;5048942;28;20437;-87
2022/05/09 07:41:30;;;;;;;13.03;11.50;;;17.20;99.90;;;;;;5050693;28;20552;-86
2022/05/09 07:44:03;;;;;;;16.47;12.53;;;17.10;99.90;;;;;;5046981;28;20476;-86
2022/05/09 07:46:39;;;;;;;13.70;12.10;;;17.00;99.90;;;;;;5044357;28;20431;-87
2022/05/09 07:52:25;;;;;;;14.10;10.43;;;17.20;99.90;;;;;;5000708;28;20804;-86
2022/05/09 07:54:52;;;;;;;13.40;10.97;;;17.40;99.90;;;;;;5001040;28;20447;-88
2022/05/09 07:57:19;;;;;;;25.13;13.73;;;17.50;99.90;;;;;;5032419;28;21009;-87
2022/05/09 07:59:47;;;;;;;14.40;11.40;;;17.70;99.90;;;;;;5044073;28;20759;-87
2022/05/09 08:02:27;;;;;;;16.30;11.37;;;17.80;99.90;;;;;;5044185;28;20857;-89
2022/05/09 08:05:05;;;;;;;18.13;11.47;;;17.70;99.90;;;;;;5044483;28;20869;-88
2022/05/09 08:07:34;;;;;;;16.37;11.57;;;17.70;99.90;;;;;;5056931;28;20442;-87
2022/05/09 08:15:39;;;;;;;;;;;;;;;;;;;;;
2022/05/09 08:18:10;;;;;;;14.70;11.00;;;18.00;99.90;;;;;;5026622;28;20482;-87
2022/05/09 08:23:41;;;;;;;14.13;12.00;;;17.90;99.90;;;;;;1304352;26;20976;-88
2022/05/09 08:26:11;;;;;;;12.30;9.70;;;18.00;99.90;;;;;;5042697;28;20476;-87
2022/05/09 08:28:58;;;;;;;12.40;10.77;;;18.10;99.90;;;;;;5044649;28;20875;-87
2022/05/09 08:31:25;;;;;;;15.30;12.50;;;18.20;99.90;;;;;;5046713;28;20541;-86
2022/05/09 08:33:57;;;;;;;10.80;9.10;;;18.30;99.90;;;;;;5046345;28;21012;-87
2022/05/09 08:39:13;;;;;;;12.37;11.03;;;18.30;99.90;;;;;;5043233;28;20814;-86
2022/05/09 08:41:55;;;;;;;12.87;10.60;;;18.40;99.90;;;;;;5042248;28;20481;-86
2022/05/09 08:44:44;;;;;;;17.47;11.20;;;18.50;99.90;;;;;;5041574;28;20980;-86
2022/05/09 08:47:38;;;;;;;11.30;10.00;;;18.80;99.90;;;;;;5040738;28;20438;-87
2022/05/09 08:50:36;;;;;;;13.97;11.83;;;18.80;99.90;;;;;;5039975;28;20453;-87
2022/05/09 08:53:06;;;;;;;11.90;9.87;;;18.80;99.90;;;;;;5041400;28;20413;-87
2022/05/09 08:55:39;;;;;;;14.67;9.80;;;19.00;99.90;;;;;;5053498;28;20458;-87
2022/05/09 08:58:23;;;;;;;10.50;9.00;;;19.00;99.90;;;;;;5057873;28;20438;-85
2022/05/09 09:00:59;;;;;;;12.67;10.17;;;19.00;99.90;;;;;;5058169;28;20548;-86
2022/05/09 09:03:30;;;;;;;12.27;9.70;;;19.10;99.90;;;;;;5054513;28;20424;-87
2022/05/09 09:06:07;;;;;;;12.90;9.67;;;19.00;99.90;;;;;;5072719;22;20596;-88
2022/05/09 09:08:53;;;;;;;9.33;8.40;;;19.10;99.90;;;;;;5055080;28;20448;-89
2022/05/09 09:11:41;;;;;;;10.93;9.83;;;19.30;99.90;;;;;;5050440;28;20428;-89
2022/05/09 09:14:17;;;;;;;12.40;9.77;;;19.30;99.90;;;;;;5058047;28;20446;-89
2022/05/09 09:17:02;;;;;;;11.33;9.53;;;19.40;99.90;;;;;;5057066;28;20455;-90
2022/05/09 09:19:48;;;;;;;11.00;9.90;;;19.50;99.90;;;;;;5055690;28;20442;-88
2022/05/09 09:22:50;;;;;;;11.23;10.13;;;19.40;99.90;;;;;;5054641;28;20453;-90
2022/05/09 09:25:44;;;;;;;10.30;9.10;;;19.60;99.90;;;;;;5046449;28;20503;-87
2022/05/09 09:28:30;;;;;;;9.40;8.40;;;19.80;99.90;;;;;;5047367;28;20465;-89
2022/05/09 09:31:10;;;;;;;12.20;7.93;;;19.90;99.90;;;;;;5047247;28;20453;-90
2022/05/09 09:33:44;;;;;;;9.60;8.70;;;20.00;99.90;;;;;;5056287;28;20445;-89
2022/05/09 09:36:17;;;;;;;10.43;9.23;;;20.20;99.90;;;;;;5054753;28;20479;-89
2022/05/09 09:38:54;;;;;;;11.03;9.83;;;20.20;99.90;;;;;;5051222;28;20795;-89
2022/05/09 09:41:27;;;;;;;10.20;9.20;;;20.20;99.90;;;;;;5044464;28;20414;-89
2022/05/09 09:44:04;;;;;;;12.83;9.47;;;20.20;99.90;;;;;;5045163;28;20457;-89
2022/05/09 09:46:34;;;;;;;10.80;9.70;;;20.40;99.90;;;;;;5054435;28;20483;-89
2022/05/09 09:49:28;;;;;;;;;;;;;;;;;;;;;
2022/05/09 09:52:20;;;;;;;10.30;9.30;;;20.50;99.90;;;;;;5056545;28;20462;-88
2022/05/09 09:55:02;;;;;;;10.77;9.67;;;20.60;99.90;;;;;;5055500;28;20429;-88
2022/05/09 09:57:37;;;;;;;11.27;9.27;;;20.80;99.90;;;;;;5053964;28;20469;-90
2022/05/09 10:00:24;;;;;;;11.50;10.20;;;20.70;99.90;;;;;;5052735;28;20540;-88
2022/05/09 10:02:52;;;;;;;12.10;9.60;;;20.40;99.90;;;;;;5053194;28;20461;-89
2022/05/09 10:05:21;;;;;;;11.90;10.57;;;20.30;99.90;;;;;;5051912;28;20448;-86
2022/05/09 10:07:48;;;;;;;9.90;8.90;;;20.30;99.90;;;;;;5054431;28;20453;-87
2022/05/09 10:10:17;;;;;;;16.53;9.57;;;20.40;99.90;;;;;;5051574;28;20433;-87
2022/05/09 10:12:49;;;;;;;10.20;9.10;;;20.40;99.90;;;;;;5048663;28;20443;-88
2022/05/09 10:15:38;;;;;;;10.80;9.70;;;20.50;99.90;;;;;;5046591;28;20454;-89
2022/05/09 10:18:18;;;;;;;9.90;8.87;;;20.40;99.90;;;;;;5045051;28;20445;-88
2022/05/09 10:20:48;;;;;;;10.13;9.03;;;20.50;99.90;;;;;;5040742;28;20449;-89
2022/05/09 10:26:20;;;;;;;10.50;9.47;;;20.70;99.90;;;;;;5049065;28;20451;-88
2022/05/09 10:28:54;;;;;;;8.40;7.60;;;20.80;99.90;;;;;;5052154;28;20591;-89
2022/05/09 10:31:29;;;;;;;9.33;8.33;;;21.00;99.90;;;;;;5050254;28;20429;-88
2022/05/09 10:34:01;;;;;;;8.63;6.93;;;21.00;99.90;;;;;;5050749;28;20447;-89
2022/05/09 10:36:34;;;;;;;9.43;7.63;;;21.10;99.90;;;;;;5050821;28;20508;-87
2022/05/09 10:39:15;;;;;;;11.10;8.40;;;21.30;99.90;;;;;;5049246;28;20476;-89
2022/05/09 10:41:43;;;;;;;9.63;8.37;;;21.40;99.50;;;;;;5045747;28;20463;-90
2022/05/09 10:44:27;;;;;;;9.50;8.47;;;21.50;98.90;;;;;;5039621;28;20492;-91
2022/05/09 10:47:05;;;;;;;10.40;8.80;;;21.40;99.00;;;;;;5039449;28;20474;-90
2022/05/09 10:49:48;;;;;;;9.63;8.00;;;21.20;98.90;;;;;;5049141;28;20607;-88
2022/05/09 10:52:32;;;;;;;9.50;8.30;;;21.30;99.10;;;;;;5053564;28;20453;-90
2022/05/09 10:55:06;;;;;;;11.00;8.10;;;21.40;98.70;;;;;;5057102;28;20447;-89
2022/05/09 10:57:41;;;;;;;8.07;7.20;;;21.40;98.50;;;;;;5051939;28;20524;-89
2022/05/09 11:00:12;;;;;;;9.83;8.80;;;21.70;97.60;;;;;;5050066;28;20997;-89
2022/05/09 11:02:44;;;;;;;9.27;7.60;;;21.70;97.50;;;;;;5051563;28;20473;-88
2022/05/09 11:05:15;;;;;;;8.17;7.37;;;21.80;97.20;;;;;;5052569;28;20438;-87
2022/05/09 11:07:52;;;;;;;9.60;7.97;;;21.90;96.50;;;;;;5053546;28;20471;-88
2022/05/09 11:10:29;;;;;;;9.00;7.90;;;22.00;96.10;;;;;;5059218;28;20430;-86
2022/05/09 11:13:15;;;;;;;11.03;7.30;;;22.00;96.20;;;;;;5058017;28;20453;-88
2022/05/09 11:15:57;;;;;;;8.83;7.93;;;22.20;95.90;;;;;;5053762;28;20481;-87
2022/05/09 11:18:39;;;;;;;9.93;8.93;;;22.30;96.10;;;;;;5050562;28;20449;-88
2022/05/09 11:21:16;;;;;;;11.73;9.37;;;22.30;97.50;;;;;;5052049;28;20445;-87
2022/05/09 11:23:57;;;;;;;12.83;8.87;;;22.10;98.20;;;;;;5047676;28;20479;-88
2022/05/09 11:26:35;;;;;;;8.80;7.90;;;22.10;98.20;;;;;;5051573;28;20451;-88
2022/05/09 11:29:49;;;;;;;11.93;10.10;;;22.20;97.70;;;;;;5053449;28;20497;-90
2022/05/09 11:32:37;;;;;;;12.17;8.30;;;22.30;96.90;;;;;;5045504;28;20460;-89
2022/05/09 11:38:51;;;;;;;8.23;7.40;;;22.70;94.70;;;;;;4988987;28;20455;-87
2022/05/09 11:44:48;;;;;;;8.23;7.43;;;22.90;93.40;;;;;;5042254;28;20525;-89
2022/05/09 11:47:35;;;;;;;7.30;6.60;;;22.80;93.10;;;;;;5042931;28;20544;-88
2022/05/09 11:50:18;;;;;;;15.23;7.63;;;22.80;93.70;;;;;;5043576;28;20497;-88
2022/05/09 11:52:50;;;;;;;9.10;8.20;;;22.60;94.00;;;;;;5044040;28;20484;-89
2022/05/09 11:55:20;;;;;;;9.10;8.20;;;22.60;94.20;;;;;;5043964;28;20422;-88
2022/05/09 11:57:55;;;;;;;8.30;7.47;;;22.50;94.00;;;;;;5055177;28;20453;-87
2022/05/09 12:00:49;;;;;;;11.27;7.50;;;22.30;93.70;;;;;;5057888;28;20410;-89
2022/05/09 12:03:34;;;;;;;10.30;7.20;;;22.30;93.60;;;;;;5042995;28;20539;-88
2022/05/09 12:06:04;;;;;;;8.30;7.33;;;22.50;93.70;;;;;;5033209;28;20484;-88
2022/05/09 12:09:08;;;;;;;8.90;8.00;;;22.60;93.30;;;;;;5059503;28;20450;-87
2022/05/09 12:11:49;;;;;;;11.20;8.13;;;22.70;92.90;;;;;;5051627;28;20444;-88
2022/05/09 12:14:50;;;;;;;8.50;7.10;;;22.90;92.60;;;;;;5054753;28;20414;-88
2022/05/09 12:17:39;;;;;;;8.07;7.27;;;23.20;92.10;;;;;;5054041;28;20516;-87
2022/05/09 12:20:25;;;;;;;;;;;;;;;;;;;;;
2022/05/09 12:22:56;;;;;;;8.67;7.80;;;23.30;91.40;;;;;;5039453;28;20553;-88
2022/05/09 12:26:03;;;;;;;7.93;7.23;;;23.30;91.10;;;;;;5044867;28;20536;-89
2022/05/09 12:28:39;;;;;;;19.60;7.43;;;23.30;91.20;;;;;;5039030;28;20445;-88
2022/05/09 12:48:44;;;;;;;6.70;6.00;;;23.50;90.10;;;;;;4875282;29;20476;-88
2022/05/09 12:51:20;;;;;;;7.77;6.97;;;23.50;89.70;;;;;;4943325;28;20454;-89
2022/05/09 12:53:49;;;;;;;8.03;7.23;;;23.50;89.90;;;;;;5050623;28;20487;-88
2022/05/09 12:56:27;;;;;;;8.40;7.10;;;23.60;89.20;;;;;;5043807;28;20481;-88
2022/05/09 12:59:21;;;;;;;8.90;7.07;;;23.80;88.00;;;;;;5041506;28;20464;-88
2022/05/09 13:02:28;;;;;;;7.17;6.47;;;23.90;86.80;;;;;;5042426;28;20464;-88
2022/05/09 13:05:18;;;;;;;10.40;8.30;;;23.90;87.40;;;;;;5045822;28;20452;-88
2022/05/09 13:11:15;;;;;;;8.30;6.90;;;24.10;86.80;;;;;;5046321;28;20408;-88
2022/05/09 13:14:04;;;;;;;9.30;7.03;;;24.10;86.40;;;;;;5042289;28;20442;-88
2022/05/09 13:16:35;;;;;;;7.80;6.83;;;24.10;86.10;;;;;;5042466;28;20478;-88
2022/05/09 13:19:06;;;;;;;8.40;7.50;;;24.00;86.10;;;;;;5044116;28;20508;-88
2022/05/09 13:21:50;;;;;;;9.97;8.50;;;24.00;85.80;;;;;;5049787;28;20454;-87
2022/05/09 13:24:25;;;;;;;8.77;7.37;;;23.90;86.20;;;;;;5050190;28;20522;-88
2022/05/09 13:26:57;;;;;;;8.23;7.33;;;24.10;86.20;;;;;;5042049;28;20477;-88
2022/05/09 13:29:29;;;;;;;10.80;7.73;;;24.10;85.60;;;;;;5043042;28;20454;-88
2022/05/09 13:31:58;;;;;;;9.93;6.80;;;23.90;85.60;;;;;;5043039;28;20426;-88
2022/05/09 13:34:36;;;;;;;9.30;7.00;;;24.00;85.50;;;;;;5042925;28;20931;-87
2022/05/09 13:37:13;;;;;;;10.30;7.53;;;24.00;85.30;;;;;;5042031;28;20620;-89
2022/05/09 13:39:48;;;;;;;7.30;6.27;;;24.10;85.10;;;;;;5047084;28;20438;-88
2022/05/09 13:42:22;;;;;;;9.17;7.00;;;24.00;84.30;;;;;;5045454;28;20443;-87
2022/05/09 13:45:18;;;;;;;10.10;7.07;;;24.10;84.10;;;;;;5046958;28;20449;-89
2022/05/09 13:47:52;;;;;;;8.07;7.13;;;24.00;84.80;;;;;;5056665;28;20465;-86
2022/05/09 13:50:32;;;;;;;8.17;7.37;;;24.00;84.60;;;;;;5057279;28;20447;-85
2022/05/09 13:53:24;;;;;;;7.90;7.10;;;24.00;85.30;;;;;;5056718;28;20517;-88
2022/05/09 13:55:58;;;;;;;10.70;8.40;;;23.80;85.80;;;;;;5042997;28;20556;-87
2022/05/09 13:58:31;;;;;;;8.20;7.40;;;23.80;85.90;;;;;;5042613;28;20464;-88
2022/05/09 14:01:03;;;;;;;8.27;7.27;;;23.70;86.00;;;;;;5045735;28;20477;-86
2022/05/09 14:03:39;;;;;;;7.73;6.80;;;23.70;85.70;;;;;;5050003;28;20504;-87
2022/05/09 14:06:11;;;;;;;9.80;7.13;;;23.80;85.70;;;;;;5043877;28;20628;-88
2022/05/09 14:08:45;;;;;;;7.90;7.10;;;23.90;84.80;;;;;;5043969;28;20449;-87
2022/05/09 14:11:16;;;;;;;8.00;6.60;;;24.00;85.00;;;;;;5041877;28;20506;-88
2022/05/09 14:13:50;;;;;;;7.10;6.40;;;24.20;83.80;;;;;;5041231;28;20797;-87
2022/05/09 14:16:24;;;;;;;7.83;7.00;;;24.20;83.30;;;;;;5044755;28;20523;-87
2022/05/09 14:19:02;;;;;;;9.00;7.60;;;24.20;83.10;;;;;;5047036;28;20457;-87
2022/05/09 14:21:46;;;;;;;;;;;;;;;;;;;;;
2022/05/09 14:24:25;;;;;;;7.87;7.03;;;24.30;82.80;;;;;;5040393;28;20890;-87
2022/05/09 14:29:56;;;;;;;9.13;6.97;;;24.50;81.20;;;;;;5048707;28;20457;-88
2022/05/09 14:32:46;;;;;;;7.87;7.07;;;24.50;81.60;;;;;;5047958;28;20457;-88
2022/05/09 14:35:44;;;;;;;8.00;6.77;;;24.60;80.80;;;;;;5047446;28;20464;-87
2022/05/09 14:38:32;;;;;;;7.43;6.33;;;24.80;80.70;;;;;;5047056;28;20461;-89
2022/05/09 14:41:44;;;;;;;8.90;7.10;;;24.60;80.10;;;;;;5056696;28;20450;-88
2022/05/09 14:44:28;;;;;;;10.20;6.90;;;24.30;80.70;;;;;;5053898;28;20476;-88
2022/05/09 14:47:12;;;;;;;7.37;6.60;;;24.30;80.30;;;;;;5052154;28;20501;-88
2022/05/09 14:49:53;;;;;;;9.07;7.00;;;24.30;80.10;;;;;;5050108;28;20449;-87
2022/05/09 14:52:41;;;;;;;9.23;8.33;;;24.40;79.90;;;;;;5048894;28;20456;-89
2022/05/09 14:58:43;;;;;;;10.43;7.17;;;25.30;77.40;;;;;;5048508;28;20472;-88
2022/05/09 15:01:27;;;;;;;8.20;7.40;;;25.50;76.50;;;;;;5048500;28;20457;-89
2022/05/09 15:04:00;;;;;;;9.40;7.17;;;25.30;76.90;;;;;;5028324;28;20508;-85
2022/05/09 15:06:31;;;;;;;7.60;6.80;;;25.20;77.30;;;;;;5060627;28;20469;-85
2022/05/09 15:09:01;;;;;;;9.50;7.90;;;24.70;78.40;;;;;;5060791;28;20445;-85
2022/05/09 15:30:52;;;;;;;8.40;7.53;;;26.50;72.30;;;;;;4969555;28;20445;-88